createdAt,value
2023-08-08T00:03:32.684Z,2.5
2023-08-08T00:08:36.213Z,2.5
2023-08-08T00:13:40.735Z,2.5
2023-08-08T00:18:45.276Z,2.4
2023-08-08T00:23:48.797Z,2.4
2023-08-08T00:28:53.331Z,2.5
2023-08-08T00:33:57.854Z,2.5
2023-08-08T00:39:01.419Z,2.5
2023-08-08T00:44:05.946Z,2.5
2023-08-08T00:49:10.462Z,2.5
2023-08-08T00:59:18.571Z,2.5
2023-08-08T01:04:23.146Z,2.4
2023-08-08T01:09:29.728Z,2.5
2023-08-08T01:19:35.717Z,2.5
2023-08-08T01:24:40.244Z,2.5
2023-08-08T01:29:43.773Z,2.5
2023-08-08T01:34:48.322Z,2.5
2023-08-08T01:39:52.898Z,2.5
2023-08-08T01:44:56.390Z,2.5
2023-08-08T01:50:00.955Z,2.5
2023-08-08T01:55:05.501Z,2.5
2023-08-08T02:05:12.545Z,2.4
2023-08-08T02:10:17.087Z,2.4
2023-08-08T02:15:21.638Z,2.4
2023-08-08T02:25:29.731Z,2.3
2023-08-08T02:30:34.275Z,2.2
2023-08-08T02:35:38.785Z,2.2
2023-08-08T02:40:42.353Z,2.1
2023-08-08T02:45:46.858Z,2
2023-08-08T02:50:51.401Z,2
2023-08-08T02:55:54.958Z,2
2023-08-08T03:00:59.521Z,1.9
2023-08-08T03:06:04.034Z,1.9
2023-08-08T03:11:08.525Z,1.8
2023-08-08T03:16:12.156Z,2
2023-08-08T03:21:16.609Z,1.9
2023-08-08T03:26:21.146Z,2
2023-08-08T03:31:24.743Z,2.1
2023-08-08T03:36:29.269Z,2
2023-08-08T03:41:33.808Z,2
2023-08-08T03:46:37.370Z,2.1
2023-08-08T03:51:41.860Z,2.2
2023-08-08T04:01:49.929Z,2.1
2023-08-08T04:06:54.456Z,2.1
2023-08-08T04:11:59.289Z,2.1
2023-08-08T04:17:03.611Z,2.2
2023-08-08T04:22:07.126Z,2.3
2023-08-08T04:27:11.647Z,2.6
2023-08-08T04:32:16.183Z,2.5
2023-08-08T04:37:19.700Z,2.5
2023-08-08T04:42:24.236Z,2.6
2023-08-08T04:47:28.831Z,2.6
2023-08-08T04:52:32.357Z,2.6
2023-08-08T04:57:36.916Z,2.6
2023-08-08T05:02:41.439Z,2.6
2023-08-08T05:07:44.998Z,2.6
2023-08-08T05:12:49.532Z,2.7
2023-08-08T05:17:54.118Z,2.6
2023-08-08T05:22:58.635Z,2.7
2023-08-08T05:28:02.129Z,2.7
2023-08-08T05:33:06.681Z,2.7
2023-08-08T05:38:11.202Z,2.6
2023-08-08T05:43:14.781Z,2.5
2023-08-08T05:48:19.273Z,2.5
2023-08-08T05:53:23.854Z,2.4
2023-08-08T05:58:27.402Z,2.5
2023-08-08T06:03:31.917Z,2.4
2023-08-08T06:08:36.452Z,2.3
2023-08-08T06:13:40.672Z,2.2
2023-08-08T06:18:44.562Z,2.3
2023-08-08T06:23:48.099Z,2.4
2023-08-08T06:28:52.628Z,2.3
2023-08-08T06:33:57.188Z,2.3
2023-08-08T06:39:00.718Z,2.4
2023-08-08T06:44:05.266Z,2.4
2023-08-08T06:49:09.768Z,2.4
2023-08-08T06:54:13.332Z,2.6
2023-08-08T06:59:17.866Z,2.8
2023-08-08T07:04:22.434Z,3
2023-08-08T07:09:25.941Z,3.1
2023-08-08T07:14:30.470Z,3
2023-08-08T07:19:35.006Z,3
2023-08-08T07:24:39.549Z,2.7
2023-08-08T07:29:43.091Z,3
2023-08-08T07:34:47.641Z,2.9
2023-08-08T07:39:52.161Z,3
2023-08-08T07:44:55.766Z,2.9
2023-08-08T07:50:00.262Z,3.2
2023-08-08T07:55:04.820Z,3.4
2023-08-08T08:05:12.851Z,3.8
2023-08-08T08:10:17.386Z,4
2023-08-08T08:15:20.996Z,4.3
2023-08-08T08:20:25.510Z,4.2
2023-08-08T08:25:30.055Z,4.2
2023-08-08T08:30:34.575Z,3.9
2023-08-08T08:35:38.126Z,4.2
2023-08-08T08:40:42.665Z,4.4
2023-08-08T08:45:47.168Z,4.3
2023-08-08T08:50:50.759Z,4.1
2023-08-08T08:55:55.297Z,4.2
2023-08-08T09:00:59.853Z,4.2
2023-08-08T09:06:03.346Z,4.2
2023-08-08T09:11:07.881Z,4
2023-08-08T09:16:12.472Z,3.7
2023-08-08T09:21:15.971Z,3.7
2023-08-08T09:26:20.481Z,4
2023-08-08T09:31:25.015Z,4.2
2023-08-08T09:36:31.654Z,4.4
2023-08-08T09:41:33.180Z,4.5
2023-08-08T09:46:37.697Z,4.6
2023-08-08T09:51:42.207Z,4.8
2023-08-08T09:56:45.740Z,4.8
2023-08-08T10:01:50.372Z,4.9
2023-08-08T10:06:54.788Z,5.1
2023-08-08T10:11:58.669Z,5.3
2023-08-08T10:17:02.908Z,5.5
2023-08-08T10:22:07.441Z,5.7
2023-08-08T10:27:11.010Z,6
2023-08-08T10:32:15.506Z,5.8
2023-08-08T10:37:19.141Z,5.7
2023-08-08T10:42:23.591Z,5.7
2023-08-08T10:47:28.203Z,6
2023-08-08T10:52:31.706Z,6.3
2023-08-08T10:57:36.234Z,6.3
2023-08-08T11:02:40.774Z,6.2
2023-08-08T11:07:44.337Z,6.1
2023-08-08T11:12:48.838Z,6.3
2023-08-08T11:17:53.416Z,6.1
2023-08-08T11:22:57.879Z,6.2
2023-08-08T11:28:01.469Z,6.2
2023-08-08T11:38:10.574Z,5.9
2023-08-08T11:43:14.059Z,6.3
2023-08-08T11:48:18.626Z,6.6
2023-08-08T11:53:23.129Z,6.5
2023-08-08T11:58:26.687Z,6.4
2023-08-08T12:03:31.258Z,6.5
2023-08-08T12:08:35.752Z,6.4
2023-08-08T12:13:39.335Z,6
2023-08-08T12:18:43.820Z,6.1
2023-08-08T12:23:48.344Z,5.8
2023-08-08T12:28:52.875Z,6.4
2023-08-08T12:33:56.452Z,6.4
2023-08-08T12:39:01.008Z,6.4
2023-08-08T12:44:05.533Z,6.5
2023-08-08T12:49:09.363Z,6.2
2023-08-08T12:54:13.656Z,5.6
2023-08-08T12:59:18.181Z,5.5
2023-08-08T13:04:21.686Z,5.4
2023-08-08T13:09:26.209Z,5.4
2023-08-08T13:14:30.745Z,5.3
2023-08-08T13:19:34.290Z,5.2
2023-08-08T13:24:38.830Z,5.1
2023-08-08T13:29:43.393Z,5
2023-08-08T13:34:47.927Z,5.1
2023-08-08T13:39:51.489Z,5.2
2023-08-08T13:44:56.017Z,5.5
2023-08-08T13:50:00.715Z,5.6
2023-08-08T13:55:04.095Z,5.6
2023-08-08T14:05:13.133Z,5.3
2023-08-08T14:10:16.665Z,5.4
2023-08-08T14:15:21.239Z,5.1
2023-08-08T14:20:25.798Z,5.1
2023-08-08T14:25:29.333Z,5.1
2023-08-08T14:30:33.870Z,4.9
2023-08-08T14:35:38.398Z,4.8
2023-08-08T14:40:42.912Z,4.7
2023-08-08T14:45:46.500Z,4.7
2023-08-08T14:50:50.024Z,4.4
2023-08-08T14:55:54.541Z,3.4
2023-08-08T15:00:59.097Z,3
2023-08-08T15:06:02.600Z,3.1
2023-08-08T15:11:07.236Z,3.5
2023-08-08T15:16:11.804Z,3.8
2023-08-08T15:21:16.236Z,4.2
2023-08-08T15:26:19.818Z,4.2
2023-08-08T15:31:24.354Z,4.1
2023-08-08T15:36:28.874Z,4.1
2023-08-08T15:41:32.415Z,4.3
2023-08-08T15:46:36.969Z,4.2
2023-08-08T15:51:41.734Z,4.6
2023-08-08T15:56:44.999Z,5.1
2023-08-08T16:01:49.520Z,4.9
2023-08-08T16:06:54.059Z,4.9
2023-08-08T16:11:57.608Z,4.8
2023-08-08T16:17:02.572Z,4.7
2023-08-08T16:22:06.689Z,4.7
2023-08-08T16:27:11.247Z,4.9
2023-08-08T16:32:14.784Z,4.9
2023-08-08T16:37:19.325Z,4.9
2023-08-08T16:42:23.881Z,4.7
2023-08-08T16:47:27.384Z,4.5
2023-08-08T16:52:31.928Z,4.4
2023-08-08T16:57:36.472Z,4.3
2023-08-08T17:07:44.565Z,4.3
2023-08-08T17:12:49.076Z,4.3
2023-08-08T17:17:52.704Z,4.2
2023-08-08T17:22:57.192Z,4.3
2023-08-08T17:28:01.714Z,4.2
2023-08-08T17:33:06.299Z,4.2
2023-08-08T17:38:09.781Z,4.2
2023-08-08T17:43:14.287Z,4
2023-08-08T17:48:18.815Z,4.2
2023-08-08T17:53:22.411Z,4.2
2023-08-08T17:58:26.905Z,4.1
2023-08-08T18:03:31.491Z,4.1
2023-08-08T18:08:35.001Z,4.2
2023-08-08T18:13:39.557Z,4.2
2023-08-08T18:18:44.052Z,4.2
2023-08-08T18:23:47.591Z,4.2
2023-08-08T18:28:52.166Z,4.2
2023-08-08T18:33:56.664Z,4.2
2023-08-08T18:39:01.265Z,4.2
2023-08-08T18:44:04.775Z,4.2
2023-08-08T18:49:09.282Z,4.2
2023-08-08T18:59:17.427Z,4.2
2023-08-08T19:04:20.975Z,4.1
2023-08-08T19:09:25.494Z,4.1
2023-08-08T19:14:30.014Z,4.1
2023-08-08T19:19:34.526Z,4.1
2023-08-08T19:24:38.132Z,3.9
2023-08-08T19:29:42.657Z,3.8
2023-08-08T19:34:47.176Z,3.7
2023-08-08T19:39:50.759Z,3.7
2023-08-08T19:44:55.260Z,3.7
2023-08-08T19:49:59.850Z,3.7
2023-08-08T19:55:03.347Z,3.7
2023-08-08T20:05:12.463Z,3.6
2023-08-08T20:10:15.991Z,3.4
2023-08-08T20:15:20.562Z,3.4
2023-08-08T20:20:25.081Z,3.4
2023-08-08T20:25:29.668Z,3.2
2023-08-08T20:30:33.122Z,2.8
2023-08-08T20:35:37.658Z,2.5
2023-08-08T20:40:42.175Z,2.4
2023-08-08T20:45:45.761Z,2.4
2023-08-08T20:50:50.273Z,2.3
2023-08-08T20:55:56.242Z,2.3
2023-08-08T21:00:58.424Z,2.1
2023-08-08T21:06:02.918Z,2
2023-08-08T21:11:07.423Z,1.9
2023-08-08T21:16:11.008Z,1.8
2023-08-08T21:21:15.697Z,1.5
2023-08-08T21:26:26.317Z,1.3
2023-08-08T21:31:24.613Z,1.1
2023-08-08T21:36:28.129Z,1
2023-08-08T21:41:32.653Z,0.8
2023-08-08T21:46:37.297Z,0.9
2023-08-08T21:51:40.759Z,0.8
2023-08-08T21:56:45.297Z,0.9
2023-08-08T22:01:49.857Z,0.7
2023-08-08T22:06:53.428Z,0.8
2023-08-08T22:11:57.907Z,0.8
2023-08-08T22:17:02.657Z,0.8
2023-08-08T22:22:05.956Z,0.7
2023-08-08T22:27:10.494Z,0.7
2023-08-08T22:32:15.050Z,0.7
2023-08-08T22:37:19.560Z,0.6
2023-08-08T22:42:23.154Z,0.6
2023-08-08T22:47:27.680Z,0.6
2023-08-08T22:52:32.203Z,0.9
2023-08-08T22:57:35.774Z,0.9
2023-08-08T23:02:40.347Z,0.9
2023-08-08T23:07:44.827Z,1
2023-08-08T23:12:48.344Z,1
2023-08-08T23:17:52.880Z,0.9
2023-08-08T23:22:56.438Z,0.8
2023-08-08T23:28:00.975Z,0.9
2023-08-08T23:38:09.092Z,0.8
2023-08-08T23:43:13.624Z,0.9
2023-08-08T23:48:18.133Z,0.9
2023-08-08T23:53:21.674Z,0.8
2023-08-08T23:58:26.238Z,0.8
